Wetterdaten: Woche 25.12.17 - 31.12.17 (KW52)
Datum Zeit Temperatur Luftfeuchte Luftdruck Niederschlag Windrichtung Sonnenschein Solar Wind
25.12.2017 00:00 0,4 C 99 % 1026,0 hPa 0,0 l/m SW 0,00 h 0 W/m 7,4 km/h (2 Bft)
25.12.2017 01:00 0,3 C 98 % 1025,7 hPa 0,0 l/m SW 0,00 h 0 W/m 7,6 km/h (2 Bft)
25.12.2017 02:00 0,1 C 99 % 1025,5 hPa 0,0 l/m SW 0,00 h 0 W/m 9,8 km/h (2 Bft)
25.12.2017 03:00 -0,0 C 99 % 1025,2 hPa 0,0 l/m S-SW 0,00 h 0 W/m 10,9 km/h (2 Bft)
25.12.2017 04:00 -0,2 C 99 % 1024,9 hPa 0,0 l/m SW 0,00 h 0 W/m 10,5 km/h (2 Bft)
25.12.2017 05:00 -0,3 C 99 % 1024,6 hPa 0,0 l/m SW 0,00 h 0 W/m 10,9 km/h (2 Bft)
25.12.2017 06:00 -0,4 C 98 % 1024,3 hPa 0,0 l/m SW 0,00 h 0 W/m 9,0 km/h (2 Bft)
25.12.2017 07:00 -0,7 C 99 % 1023,9 hPa 0,0 l/m SW 0,00 h 0 W/m 10,2 km/h (2 Bft)
25.12.2017 08:00 -0,8 C 99 % 1023,7 hPa 0,0 l/m SW 0,00 h 11 W/m 11,3 km/h (2 Bft)
25.12.2017 09:00 -0,8 C 99 % 1023,5 hPa 0,0 l/m W-SW 0,00 h 43 W/m 8,3 km/h (2 Bft)
25.12.2017 10:00 -0,6 C 99 % 1023,3 hPa 0,0 l/m SW 0,00 h 80 W/m 10,3 km/h (2 Bft)
25.12.2017 11:00 -0,1 C 99 % 1022,7 hPa 0,0 l/m SW 0,08 h 141 W/m 9,8 km/h (2 Bft)
25.12.2017 12:00 0,3 C 98 % 1021,6 hPa 0,0 l/m S-SW 0,00 h 123 W/m 9,6 km/h (2 Bft)
25.12.2017 13:00 0,3 C 98 % 1020,4 hPa 0,0 l/m S-SW 0,00 h 110 W/m 11,2 km/h (2 Bft)
25.12.2017 14:00 0,2 C 98 % 1019,6 hPa 0,0 l/m S-SW 0,00 h 77 W/m 12,0 km/h (2 Bft)
25.12.2017 15:00 0,1 C 98 % 1019,1 hPa 0,0 l/m S-SW 0,00 h 32 W/m 9,0 km/h (2 Bft)
25.12.2017 16:00 -0,2 C 98 % 1018,6 hPa 0,0 l/m S-SW 0,00 h 7 W/m 8,0 km/h (2 Bft)
25.12.2017 17:00 -0,6 C 98 % 1018,2 hPa 0,0 l/m S-SW 0,00 h 0 W/m 9,4 km/h (2 Bft)
25.12.2017 18:00 -1,0 C 98 % 1017,6 hPa 0,0 l/m S-SW 0,00 h 0 W/m 7,0 km/h (2 Bft)
25.12.2017 19:00 -1,3 C 98 % 1017,3 hPa 0,0 l/m S-SW 0,00 h 0 W/m 4,9 km/h (1 Bft)
25.12.2017 20:00 -1,7 C 98 % 1016,8 hPa 0,0 l/m S-SW 0,00 h 0 W/m 9,1 km/h (2 Bft)
25.12.2017 21:00 -1,8 C 98 % 1016,5 hPa 0,0 l/m S-SW 0,00 h 0 W/m 10,1 km/h (2 Bft)
25.12.2017 22:00 -1,9 C 98 % 1016,3 hPa 0,0 l/m S-SW 0,00 h 0 W/m 10,6 km/h (2 Bft)
25.12.2017 23:00 -1,8 C 98 % 1015,7 hPa 0,0 l/m S 0,00 h 0 W/m 12,9 km/h (3 Bft)
26.12.2017 00:00 -1,7 C 99 % 1015,3 hPa 0,0 l/m S 0,00 h 0 W/m 7,9 km/h (2 Bft)
26.12.2017 01:00 -1,5 C 98 % 1014,6 hPa 0,0 l/m S-SW 0,00 h 0 W/m 11,6 km/h (2 Bft)
26.12.2017 02:00 -1,4 C 99 % 1014,2 hPa 0,0 l/m S-SW 0,00 h 0 W/m 9,8 km/h (2 Bft)
26.12.2017 03:00 -1,3 C 99 % 1013,5 hPa 0,0 l/m S-SW 0,00 h 0 W/m 4,7 km/h (1 Bft)
26.12.2017 04:00 -1,3 C 99 % 1012,7 hPa 0,0 l/m S-SW 0,00 h 0 W/m 4,3 km/h (1 Bft)
26.12.2017 05:00 -1,5 C 99 % 1011,9 hPa 0,0 l/m S-SW 0,00 h 0 W/m 2,8 km/h (1 Bft)
26.12.2017 06:00 -1,7 C 99 % 1011,5 hPa 0,0 l/m N 0,00 h 0 W/m 0,0 km/h (0 Bft)
26.12.2017 07:00 -2,0 C 99 % 1011,5 hPa 0,0 l/m S-SW 0,00 h 0 W/m 2,7 km/h (1 Bft)
26.12.2017 08:00 -2,2 C 99 % 1010,9 hPa 0,0 l/m S-SW 0,00 h 10 W/m 9,3 km/h (2 Bft)
26.12.2017 09:00 -1,9 C 99 % 1010,5 hPa 0,0 l/m S-SW 0,25 h 80 W/m 8,5 km/h (2 Bft)
26.12.2017 10:00 0,8 C 100 % 1010,3 hPa 0,2 l/m S-SW 0,75 h 208 W/m 17,2 km/h (3 Bft)
26.12.2017 11:00 2,7 C 96 % 1010,1 hPa 0,0 l/m SW 0,00 h 102 W/m 22,1 km/h (4 Bft)
26.12.2017 12:00 5,0 C 89 % 1009,7 hPa 0,0 l/m W-SW 0,00 h 130 W/m 31,7 km/h (5 Bft)
26.12.2017 13:00 5,6 C 82 % 1009,7 hPa 0,0 l/m W 0,17 h 110 W/m 25,1 km/h (4 Bft)
26.12.2017 14:00 5,1 C 84 % 1009,7 hPa 0,0 l/m W-SW 0,00 h 52 W/m 22,4 km/h (4 Bft)
26.12.2017 15:00 4,8 C 84 % 1009,4 hPa 0,0 l/m SW 0,00 h 23 W/m 18,4 km/h (3 Bft)
26.12.2017 16:00 4,0 C 90 % 1009,1 hPa 0,0 l/m S-SW 0,00 h 7 W/m 10,2 km/h (2 Bft)
26.12.2017 17:00 3,3 C 92 % 1008,3 hPa 0,0 l/m S-SW 0,00 h 0 W/m 6,0 km/h (2 Bft)
26.12.2017 18:00 2,8 C 93 % 1007,5 hPa 0,0 l/m SW 0,00 h 0 W/m 4,3 km/h (1 Bft)
26.12.2017 19:00 2,3 C 93 % 1006,5 hPa 0,0 l/m SW 0,00 h 0 W/m 2,7 km/h (1 Bft)
26.12.2017 20:00 1,5 C 92 % 1005,4 hPa 0,0 l/m N 0,00 h 0 W/m 0,0 km/h (0 Bft)
26.12.2017 21:00 0,9 C 93 % 1004,3 hPa 0,0 l/m N 0,00 h 0 W/m 0,4 km/h (0 Bft)
26.12.2017 22:00 0,1 C 93 % 1003,1 hPa 0,0 l/m N 0,00 h 0 W/m 0,0 km/h (0 Bft)
26.12.2017 23:00 -0,6 C 93 % 1001,9 hPa 0,0 l/m N 0,00 h 0 W/m 0,0 km/h (0 Bft)
27.12.2017 00:00 -0,7 C 94 % 1000,3 hPa 0,0 l/m N 0,00 h 0 W/m 0,0 km/h (0 Bft)
27.12.2017 01:00 -0,7 C 95 % 998,9 hPa 0,0 l/m N 0,00 h 0 W/m 0,0 km/h (0 Bft)
27.12.2017 02:00 -0,8 C 95 % 997,5 hPa 0,0 l/m N 0,00 h 0 W/m 0,0 km/h (0 Bft)
27.12.2017 03:00 -0,8 C 96 % 995,8 hPa 0,0 l/m N 0,00 h 0 W/m 0,0 km/h (0 Bft)
27.12.2017 04:00 -0,6 C 96 % 994,0 hPa 0,0 l/m N 0,00 h 0 W/m 0,5 km/h (0 Bft)
27.12.2017 05:00 -0,4 C 96 % 992,4 hPa 0,0 l/m W 0,00 h 0 W/m 3,5 km/h (1 Bft)
27.12.2017 06:00 -0,3 C 96 % 991,1 hPa 0,0 l/m W 0,00 h 0 W/m 2,8 km/h (1 Bft)
27.12.2017 07:00 -0,2 C 95 % 990,6 hPa 0,0 l/m W-NW 0,00 h 0 W/m 3,6 km/h (1 Bft)
27.12.2017 08:00 -0,1 C 94 % 990,2 hPa 0,0 l/m N 0,00 h 15 W/m 0,4 km/h (0 Bft)
27.12.2017 09:00 0,1 C 93 % 990,1 hPa 0,0 l/m W-NW 0,00 h 44 W/m 4,2 km/h (1 Bft)
27.12.2017 10:00 0,5 C 93 % 989,6 hPa 0,0 l/m W-NW 0,00 h 64 W/m 0,0 km/h (0 Bft)
27.12.2017 11:00 1,1 C 92 % 989,2 hPa 0,0 l/m W-NW 0,00 h 75 W/m 4,5 km/h (1 Bft)
27.12.2017 12:00 1,2 C 91 % 987,7 hPa 0,0 l/m W-NW 0,00 h 46 W/m 1,9 km/h (1 Bft)
27.12.2017 13:00 1,3 C 90 % 987,1 hPa 0,0 l/m W-NW 0,00 h 39 W/m 3,6 km/h (1 Bft)
27.12.2017 14:00 1,3 C 90 % 987,1 hPa 0,0 l/m W-NW 0,00 h 34 W/m 1,3 km/h (1 Bft)
27.12.2017 15:00 1,5 C 90 % 987,1 hPa 0,2 l/m W-NW 0,00 h 11 W/m 2,3 km/h (1 Bft)
27.12.2017 16:00 1,4 C 92 % 987,2 hPa 0,8 l/m W 0,00 h 5 W/m 5,3 km/h (1 Bft)
27.12.2017 17:00 1,0 C 94 % 987,3 hPa 0,6 l/m W 0,00 h 0 W/m 7,2 km/h (2 Bft)
27.12.2017 18:00 0,7 C 95 % 987,5 hPa 1,2 l/m W 0,00 h 0 W/m 5,9 km/h (2 Bft)
27.12.2017 19:00 0,7 C 96 % 987,8 hPa 1,2 l/m W 0,00 h 0 W/m 4,9 km/h (1 Bft)
27.12.2017 20:00 0,6 C 97 % 988,5 hPa 1,4 l/m SW 0,00 h 0 W/m 12,1 km/h (2 Bft)
27.12.2017 21:00 0,6 C 97 % 989,2 hPa 0,4 l/m SW 0,00 h 0 W/m 9,8 km/h (2 Bft)
27.12.2017 22:00 0,9 C 98 % 989,6 hPa 0,0 l/m W-SW 0,00 h 0 W/m 16,8 km/h (3 Bft)
27.12.2017 23:00 1,0 C 97 % 990,2 hPa 0,0 l/m W-SW 0,00 h 0 W/m 19,4 km/h (3 Bft)
28.12.2017 00:00 1,0 C 96 % 990,6 hPa 0,0 l/m W-SW 0,00 h 0 W/m 20,6 km/h (4 Bft)
28.12.2017 01:00 1,1 C 94 % 990,6 hPa 0,0 l/m W-SW 0,00 h 0 W/m 18,1 km/h (3 Bft)
28.12.2017 02:00 1,1 C 94 % 991,0 hPa 0,0 l/m W-SW 0,00 h 0 W/m 19,2 km/h (3 Bft)
28.12.2017 03:00 1,1 C 92 % 991,4 hPa 0,0 l/m W-SW 0,00 h 0 W/m 24,3 km/h (4 Bft)
28.12.2017 04:00 1,0 C 92 % 992,0 hPa 0,0 l/m W-SW 0,00 h 0 W/m 22,3 km/h (4 Bft)
28.12.2017 05:00 0,7 C 92 % 992,7 hPa 0,0 l/m W-SW 0,00 h 0 W/m 20,9 km/h (4 Bft)
28.12.2017 06:00 0,4 C 94 % 993,5 hPa 0,0 l/m W 0,00 h 0 W/m 20,0 km/h (4 Bft)
28.12.2017 07:00 0,2 C 95 % 994,3 hPa 0,4 l/m W-SW 0,00 h 0 W/m 18,9 km/h (3 Bft)
28.12.2017 08:00 0,1 C 96 % 995,6 hPa 0,8 l/m W-SW 0,00 h 8 W/m 15,4 km/h (3 Bft)
28.12.2017 09:00 0,2 C 96 % 996,8 hPa 0,4 l/m W 0,00 h 30 W/m 13,4 km/h (3 Bft)
28.12.2017 10:00 0,4 C 97 % 998,1 hPa 0,4 l/m W 0,00 h 73 W/m 15,6 km/h (3 Bft)
28.12.2017 11:00 0,6 C 96 % 999,0 hPa 0,0 l/m W 0,00 h 136 W/m 15,8 km/h (3 Bft)
28.12.2017 12:00 0,8 C 94 % 999,8 hPa 0,0 l/m W 0,00 h 131 W/m 15,8 km/h (3 Bft)
28.12.2017 13:00 0,5 C 93 % 1000,2 hPa 0,0 l/m W 0,00 h 103 W/m 14,8 km/h (3 Bft)
28.12.2017 14:00 0,3 C 91 % 1001,1 hPa 0,0 l/m W 0,00 h 46 W/m 13,3 km/h (3 Bft)
28.12.2017 15:00 -0,0 C 91 % 1002,6 hPa 0,0 l/m W-SW 0,00 h 21 W/m 13,6 km/h (3 Bft)
28.12.2017 16:00 -0,3 C 92 % 1003,4 hPa 0,0 l/m W 0,00 h 9 W/m 13,7 km/h (3 Bft)
28.12.2017 17:00 -0,6 C 92 % 1004,3 hPa 0,0 l/m W 0,00 h 0 W/m 14,5 km/h (3 Bft)
28.12.2017 18:00 -0,9 C 93 % 1005,1 hPa 0,0 l/m W 0,00 h 0 W/m 9,8 km/h (2 Bft)
28.12.2017 19:00 -1,1 C 94 % 1005,8 hPa 0,0 l/m W 0,00 h 0 W/m 10,2 km/h (2 Bft)
28.12.2017 20:00 -1,2 C 93 % 1007,0 hPa 0,0 l/m W-SW 0,00 h 0 W/m 8,3 km/h (2 Bft)
28.12.2017 21:00 -1,4 C 92 % 1007,9 hPa 0,0 l/m W-SW 0,00 h 0 W/m 8,6 km/h (2 Bft)
28.12.2017 22:00 -2,0 C 91 % 1008,9 hPa 0,0 l/m W 0,00 h 0 W/m 7,1 km/h (2 Bft)
28.12.2017 23:00 -2,3 C 92 % 1009,9 hPa 0,0 l/m W-SW 0,00 h 0 W/m 4,4 km/h (1 Bft)
29.12.2017 00:00 -2,5 C 92 % 1010,3 hPa 0,0 l/m W-SW 0,00 h 0 W/m 8,6 km/h (2 Bft)
29.12.2017 01:00 -2,7 C 92 % 1010,7 hPa 0,0 l/m W-SW 0,00 h 0 W/m 9,0 km/h (2 Bft)
29.12.2017 02:00 -2,4 C 92 % 1011,4 hPa 0,0 l/m W-SW 0,00 h 0 W/m 12,8 km/h (3 Bft)
29.12.2017 03:00 -1,9 C 90 % 1011,8 hPa 0,0 l/m W-SW 0,00 h 0 W/m 13,6 km/h (3 Bft)
29.12.2017 04:00 -2,0 C 90 % 1012,1 hPa 0,0 l/m W-SW 0,00 h 0 W/m 15,0 km/h (3 Bft)
29.12.2017 05:00 -2,4 C 90 % 1012,2 hPa 0,0 l/m SW 0,00 h 0 W/m 14,0 km/h (3 Bft)
29.12.2017 06:00 -3,2 C 91 % 1012,6 hPa 0,0 l/m SW 0,00 h 0 W/m 12,1 km/h (2 Bft)
29.12.2017 07:00 -3,5 C 93 % 1012,6 hPa 0,0 l/m SW 0,00 h 0 W/m 14,0 km/h (3 Bft)
29.12.2017 08:00 -3,3 C 93 % 1012,8 hPa 0,0 l/m W-SW 0,50 h 35 W/m 12,5 km/h (3 Bft)
29.12.2017 09:00 -2,9 C 93 % 1013,0 hPa 0,0 l/m SW 0,58 h 121 W/m 11,6 km/h (2 Bft)
29.12.2017 10:00 -1,8 C 88 % 1013,2 hPa 0,0 l/m W-SW 0,83 h 186 W/m 10,2 km/h (2 Bft)
29.12.2017 11:00 -0,2 C 78 % 1012,3 hPa 0,0 l/m W 1,00 h 328 W/m 16,5 km/h (3 Bft)
29.12.2017 12:00 0,5 C 71 % 1011,7 hPa 0,0 l/m SW 1,00 h 322 W/m 13,7 km/h (3 Bft)
29.12.2017 13:00 0,5 C 72 % 1011,1 hPa 0,0 l/m SW 0,83 h 250 W/m 14,9 km/h (3 Bft)
29.12.2017 14:00 -0,5 C 75 % 1010,2 hPa 0,0 l/m SW 0,00 h 98 W/m 11,1 km/h (2 Bft)
29.12.2017 15:00 -0,5 C 76 % 1009,4 hPa 0,0 l/m SW 0,00 h 49 W/m 11,8 km/h (2 Bft)
29.12.2017 16:00 -0,8 C 82 % 1008,7 hPa 0,0 l/m S-SW 0,00 h 12 W/m 7,4 km/h (2 Bft)
29.12.2017 17:00 -1,2 C 83 % 1007,6 hPa 0,0 l/m SW 0,00 h 0 W/m 8,4 km/h (2 Bft)
29.12.2017 18:00 -0,8 C 78 % 1006,7 hPa 0,0 l/m W-SW 0,00 h 0 W/m 19,4 km/h (3 Bft)
29.12.2017 19:00 -0,4 C 77 % 1005,6 hPa 0,0 l/m W-SW 0,00 h 0 W/m 27,1 km/h (4 Bft)
29.12.2017 20:00 -1,0 C 90 % 1005,5 hPa 0,0 l/m SW 0,00 h 0 W/m 22,9 km/h (4 Bft)
29.12.2017 21:00 -1,3 C 95 % 1005,9 hPa 1,2 l/m SW 0,00 h 0 W/m 22,3 km/h (4 Bft)
29.12.2017 22:00 -0,3 C 96 % 1006,8 hPa 0,4 l/m W-SW 0,00 h 0 W/m 23,7 km/h (4 Bft)
29.12.2017 23:00 0,8 C 97 % 1008,6 hPa 0,4 l/m SW 0,00 h 0 W/m 23,2 km/h (4 Bft)
30.12.2017 00:00 1,3 C 97 % 1009,6 hPa 0,0 l/m W-SW 0,00 h 0 W/m 25,3 km/h (4 Bft)
30.12.2017 01:00 1,5 C 96 % 1010,5 hPa 0,0 l/m W-SW 0,00 h 0 W/m 23,3 km/h (4 Bft)
30.12.2017 02:00 1,7 C 94 % 1011,2 hPa 0,0 l/m SW 0,00 h 0 W/m 19,3 km/h (3 Bft)
30.12.2017 03:00 1,3 C 94 % 1011,0 hPa 0,0 l/m W-SW 0,00 h 0 W/m 14,8 km/h (3 Bft)
30.12.2017 04:00 1,1 C 94 % 1010,3 hPa 0,0 l/m SW 0,00 h 0 W/m 13,4 km/h (3 Bft)
30.12.2017 05:00 0,2 C 94 % 1009,9 hPa 0,0 l/m SW 0,00 h 0 W/m 7,9 km/h (2 Bft)
30.12.2017 06:00 1,1 C 95 % 1009,8 hPa 0,2 l/m SW 0,00 h 0 W/m 16,8 km/h (3 Bft)
30.12.2017 07:00 1,3 C 95 % 1009,7 hPa 0,6 l/m SW 0,00 h 0 W/m 18,5 km/h (3 Bft)
30.12.2017 08:00 1,0 C 96 % 1009,0 hPa 0,8 l/m SW 0,00 h 8 W/m 25,6 km/h (4 Bft)
30.12.2017 09:00 0,8 C 97 % 1008,3 hPa 0,4 l/m SW 0,00 h 36 W/m 24,1 km/h (4 Bft)
30.12.2017 10:00 1,3 C 98 % 1007,9 hPa 0,4 l/m SW 0,00 h 68 W/m 21,8 km/h (4 Bft)
30.12.2017 11:00 1,7 C 98 % 1007,4 hPa 0,0 l/m SW 0,00 h 70 W/m 23,3 km/h (4 Bft)
30.12.2017 12:00 2,9 C 98 % 1006,8 hPa 0,0 l/m W-SW 0,00 h 108 W/m 29,8 km/h (5 Bft)
30.12.2017 13:00 3,8 C 98 % 1006,8 hPa 0,0 l/m W-SW 0,00 h 112 W/m 39,8 km/h (6 Bft)
30.12.2017 14:00 4,7 C 97 % 1007,4 hPa 0,0 l/m W-SW 0,00 h 65 W/m 37,4 km/h (5 Bft)
30.12.2017 15:00 5,3 C 97 % 1008,2 hPa 0,0 l/m SW 0,00 h 24 W/m 20,2 km/h (4 Bft)
30.12.2017 16:00 5,8 C 98 % 1008,7 hPa 0,0 l/m SW 0,00 h 7 W/m 21,7 km/h (4 Bft)
30.12.2017 17:00 7,1 C 98 % 1009,4 hPa 0,0 l/m W-SW 0,00 h 0 W/m 27,4 km/h (4 Bft)
30.12.2017 18:00 7,8 C 98 % 1010,2 hPa 0,0 l/m SW 0,00 h 0 W/m 24,9 km/h (4 Bft)
30.12.2017 19:00 8,3 C 97 % 1010,5 hPa 0,0 l/m SW 0,00 h 0 W/m 27,2 km/h (4 Bft)
30.12.2017 20:00 8,7 C 97 % 1010,5 hPa 0,2 l/m W-SW 0,00 h 0 W/m 37,4 km/h (5 Bft)
30.12.2017 21:00 8,8 C 97 % 1010,9 hPa 0,2 l/m SW 0,00 h 0 W/m 38,4 km/h (5 Bft)
30.12.2017 22:00 9,1 C 96 % 1011,0 hPa 0,0 l/m SW 0,00 h 0 W/m 38,6 km/h (5 Bft)
30.12.2017 23:00 9,3 C 96 % 1012,2 hPa 0,0 l/m W-SW 0,00 h 0 W/m 36,2 km/h (5 Bft)
31.12.2017 00:00 9,5 C 94 % 1013,0 hPa 0,0 l/m W 0,00 h 0 W/m 36,6 km/h (5 Bft)
31.12.2017 01:00 9,7 C 90 % 1013,3 hPa 0,0 l/m SW 0,00 h 0 W/m 33,9 km/h (5 Bft)
31.12.2017 02:00 9,3 C 88 % 1013,7 hPa 0,0 l/m W-SW 0,00 h 0 W/m 29,2 km/h (5 Bft)
31.12.2017 03:00 9,3 C 87 % 1013,8 hPa 0,0 l/m W-SW 0,00 h 0 W/m 26,4 km/h (4 Bft)
31.12.2017 04:00 9,2 C 88 % 1013,6 hPa 0,0 l/m W-SW 0,00 h 0 W/m 31,9 km/h (5 Bft)
31.12.2017 05:00 9,4 C 85 % 1013,5 hPa 0,0 l/m W-SW 0,00 h 0 W/m 26,3 km/h (4 Bft)
31.12.2017 06:00 9,6 C 83 % 1013,5 hPa 0,0 l/m W-SW 0,00 h 0 W/m 35,4 km/h (5 Bft)
31.12.2017 07:00 9,6 C 82 % 1014,0 hPa 0,0 l/m W-SW 0,00 h 0 W/m 24,8 km/h (4 Bft)
31.12.2017 08:00 8,9 C 84 % 1013,9 hPa 0,0 l/m SW 0,58 h 26 W/m 23,6 km/h (4 Bft)
31.12.2017 09:00 9,3 C 82 % 1014,1 hPa 0,0 l/m W-SW 0,17 h 49 W/m 31,8 km/h (5 Bft)
31.12.2017 10:00 9,9 C 77 % 1014,2 hPa 0,0 l/m W-SW 0,00 h 84 W/m 26,5 km/h (4 Bft)
31.12.2017 11:00 10,3 C 75 % 1013,6 hPa 0,0 l/m W-SW 0,42 h 170 W/m 25,7 km/h (4 Bft)
31.12.2017 12:00 11,1 C 72 % 1012,2 hPa 0,0 l/m SW 0,75 h 229 W/m 31,5 km/h (5 Bft)
31.12.2017 13:00 11,3 C 70 % 1011,0 hPa 0,0 l/m W-SW 0,33 h 157 W/m 28,6 km/h (4 Bft)
31.12.2017 14:00 11,8 C 69 % 1009,9 hPa 0,0 l/m SW 0,92 h 167 W/m 19,3 km/h (3 Bft)
31.12.2017 15:00 11,1 C 70 % 1009,0 hPa 0,0 l/m SW 0,58 h 78 W/m 14,5 km/h (3 Bft)
31.12.2017 16:00 10,2 C 71 % 1008,1 hPa 0,0 l/m W-SW 0,08 h 12 W/m 9,8 km/h (2 Bft)
31.12.2017 17:00 8,7 C 75 % 1007,5 hPa 0,0 l/m N 0,00 h 0 W/m 0,7 km/h (0 Bft)
31.12.2017 18:00 6,7 C 80 % 1006,8 hPa 0,0 l/m N 0,00 h 0 W/m 0,0 km/h (0 Bft)
31.12.2017 19:00 4,9 C 85 % 1006,4 hPa 0,0 l/m N 0,00 h 0 W/m 0,0 km/h (0 Bft)
31.12.2017 20:00 3,8 C 88 % 1006,5 hPa 0,0 l/m N 0,00 h 0 W/m 0,4 km/h (0 Bft)
31.12.2017 21:00 3,4 C 91 % 1006,4 hPa 0,0 l/m SW 0,00 h 0 W/m 1,3 km/h (1 Bft)
31.12.2017 22:00 4,8 C 90 % 1006,7 hPa 0,0 l/m SW 0,00 h 0 W/m 18,6 km/h (3 Bft)
31.12.2017 23:00 3,9 C 89 % 1006,8 hPa 0,0 l/m SW 0,00 h 0 W/m 13,3 km/h (3 Bft)
Min-Datum _ 29.12.17 31.12.17 27.12.17 - - - - 25.12.17
_ Min-Zeit 06:55 14:40 13:10 - - - - 18:20
Minimum _ -3,7 C 68 % 986,6 hPa - - - - 0,0 km/h (0 Bft)
Max-Datum _ 31.12.17 25.12.17 25.12.17 27.12.17 - 25.12.17 29.12.17 30.12.17
_ Max-Zeit 14:00 03:20 00:00 20:10 - 11:45 11:05 13:45
Maximum _ 12,0 C 100 % 1026,3 hPa 1,4 l/m - 0,08 h 411 W/m 53,1 km/h
W-SW (7 Bft)
Durchschnitt _ 1,7 C 92 % 1007,3 hPa #12,8 l/m SW #9:50 h 81 W/m 14,2 km/h (3 Bft)